Time;durP1;ratioP1;P1;durP2;ratioP2;P2;SDS_P1;SDS_P2;PMS_P1;PMS_P2;Temp;Humidity;BMP_temperature;BMP_pressure;BME280_temperature;BME280_humidity;BME280_pressure;Samples;Min_cycle;Max_cycle;Signal;HPM_P1;HPM_P2
2022/02/14 00:02:19;;;;;;;;;8.25;7.75;;;;;21.17;39.07;99225.19;5060361;28;45460;-71
2022/02/14 00:04:44;;;;;;;;;8.00;6.00;;;;;21.16;39.01;99226.97;5060295;28;45325;-70
2022/02/14 00:07:09;;;;;;;;;5.00;5.00;;;;;21.15;39.22;99219.97;5061462;28;47695;-70
2022/02/14 00:09:35;;;;;;;;;8.00;6.25;;;;;21.15;39.14;99211.16;5061266;28;49270;-70
2022/02/14 00:12:00;;;;;;;;;5.00;5.00;;;;;21.14;39.10;99215.63;5060214;28;45477;-70
2022/02/14 00:14:27;;;;;;;;;4.75;4.25;;;;;21.11;39.01;99202.53;5059783;28;46953;-70
2022/02/14 00:16:53;;;;;;;;;8.75;7.00;;;;;21.08;39.08;99189.44;5059979;28;45260;-70
2022/02/14 00:19:19;;;;;;;;;6.00;6.00;;;;;21.09;38.92;99195.59;5061412;28;45248;-70
2022/02/14 00:21:44;;;;;;;;;7.00;6.50;;;;;21.09;39.17;99193.78;5061490;28;45410;-70
2022/02/14 00:24:10;;;;;;;;;7.50;5.75;;;;;21.08;39.34;99189.44;5061199;28;54267;-70
2022/02/14 00:26:36;;;;;;;;;7.75;6.00;;;;;21.07;39.19;99186.88;5043156;28;45647;-70
2022/02/14 00:29:02;;;;;;;;;7.75;4.50;;;;;21.04;39.61;99179.97;5043181;28;45250;-70
2022/02/14 00:31:27;;;;;;;;;7.25;7.00;;;;;21.03;39.78;99186.22;5059894;28;45577;-70
2022/02/14 00:33:53;;;;;;;;;6.00;5.00;;;;;21.01;39.59;99193.38;5042827;28;46657;-70
2022/02/14 00:36:18;;;;;;;;;6.25;5.50;;;;;21.01;39.73;99195.19;5022552;28;60652;-70
2022/02/14 00:38:44;;;;;;;;;5.50;5.50;;;;;21.00;39.42;99188.19;5054413;28;45626;-70
2022/02/14 00:41:10;;;;;;;;;5.75;5.00;;;;;20.99;39.64;99178.50;5059810;28;45268;-70
2022/02/14 00:43:35;;;;;;;;;8.25;6.00;;;;;20.95;39.90;99184.94;5042924;28;47625;-70
2022/02/14 00:46:01;;;;;;;;;5.50;5.50;;;;;20.97;39.65;99183.91;5042519;28;45387;-70
2022/02/14 00:48:26;;;;;;;;;5.75;4.75;;;;;20.96;39.78;99178.69;5059614;28;45328;-70
2022/02/14 00:50:52;;;;;;;;;8.25;6.00;;;;;20.95;40.06;99169.03;5042776;28;45295;-70
2022/02/14 00:53:19;;;;;;;;;7.00;7.00;;;;;20.96;39.91;99162.78;5059449;28;46078;-70
2022/02/14 00:55:44;;;;;;;;;8.75;6.00;;;;;20.94;39.88;99160.22;5060984;28;45378;-70
2022/02/14 00:58:10;;;;;;;;;8.25;6.25;;;;;20.94;39.99;99165.53;5059611;28;45183;-70
2022/02/14 01:00:35;;;;;;;;;8.00;7.50;;;;;20.92;40.10;99158.59;5059063;28;51274;-70
2022/02/14 01:03:02;;;;;;;;;5.75;5.00;;;;;20.92;39.84;99163.91;5041720;28;67751;-70
2022/02/14 01:05:28;;;;;;;;;6.75;5.50;;;;;20.92;39.87;99151.50;5042667;28;45441;-70
2022/02/14 01:07:53;;;;;;;;;8.00;5.00;;;;;20.91;39.94;99131.22;5042590;28;45433;-70
2022/02/14 01:10:19;;;;;;;;;4.75;3.75;;;;;20.89;39.75;99149.88;5059257;28;45644;-70
2022/02/14 01:12:44;;;;;;;;;4.75;4.25;;;;;20.88;39.70;99155.28;5042428;28;45666;-70
2022/02/14 01:15:09;;;;;;;;;5.50;4.50;;;;;20.86;39.74;99147.41;5041882;28;45481;-70
2022/02/14 01:17:35;;;;;;;;;4.00;4.00;;;;;20.85;39.45;99144.84;5042496;28;45382;-70
2022/02/14 01:20:02;;;;;;;;;7.00;7.00;;;;;20.84;39.72;99153.72;5042763;28;45253;-70
2022/02/14 01:22:28;;;;;;;;;6.25;6.25;;;;;20.81;39.66;99141.50;5058981;28;46411;-70
2022/02/14 01:24:53;;;;;;;;;5.25;5.00;;;;;20.81;39.41;99138.88;5042432;28;45414;-70
2022/02/14 01:27:19;;;;;;;;;6.00;4.25;;;;;20.80;39.70;99141.59;5041775;28;58537;-70
2022/02/14 01:29:44;;;;;;;;;4.00;3.00;;;;;20.78;39.44;99128.44;5025370;28;45253;-70
2022/02/14 01:32:09;;;;;;;;;7.25;4.25;;;;;20.74;39.53;99145.47;5024969;28;61582;-70
2022/02/14 01:34:35;;;;;;;;;4.75;4.00;;;;;20.74;39.23;99129.56;5042463;28;45325;-70
2022/02/14 01:37:00;;;;;;;;;6.00;4.75;;;;;20.74;39.72;99120.75;5042075;28;45204;-70
2022/02/14 01:39:28;;;;;;;;;4.50;4.50;;;;;20.72;39.31;99115.53;5025405;28;45412;-70
2022/02/14 01:41:57;;;;;;;;;5.75;5.00;;;;;20.72;39.80;99107.59;5042213;28;48445;-70
2022/02/14 01:44:37;;;;;;;;;3.50;3.00;;;;;20.69;39.90;99117.53;5042012;28;46061;-70
2022/02/14 01:47:03;;;;;;;;;5.25;4.50;;;;;20.66;39.79;99109.72;5058657;28;45496;-70
2022/02/14 01:49:28;;;;;;;;;5.75;5.00;;;;;20.65;39.96;99089.47;5024948;28;45809;-70
2022/02/14 01:51:54;;;;;;;;;5.00;4.00;;;;;20.63;40.24;99121.38;5040888;28;71193;-70
2022/02/14 01:54:22;;;;;;;;;7.00;4.00;;;;;20.60;40.11;99137.47;5058443;28;45466;-70
2022/02/14 01:56:47;;;;;;;;;8.25;3.25;;;;;20.58;40.01;99103.06;5058772;28;45354;-70
2022/02/14 01:59:13;;;;;;;;;5.00;5.00;;;;;20.57;39.89;99105.81;5058669;28;45250;-70
2022/02/14 02:01:38;;;;;;;;;6.50;4.50;;;;;20.58;40.13;99105.72;5059680;28;45336;-70
2022/02/14 02:04:04;;;;;;;;;5.25;4.00;;;;;20.54;39.95;99095.41;5024333;28;65793;-70
2022/02/14 02:06:30;;;;;;;;;6.50;5.25;;;;;20.54;40.14;99103.34;5058560;28;45263;-70
2022/02/14 02:08:56;;;;;;;;;5.50;4.75;;;;;20.53;40.23;99097.19;5041968;28;45221;-70
2022/02/14 02:14:05;;;;;;;;;6.00;6.00;;;;;20.51;39.82;99098.25;5044474;28;45303;-70
2022/02/14 02:16:31;;;;;;;;;4.00;4.00;;;;;20.50;40.59;99108.00;5024697;28;45443;-70
2022/02/14 02:18:56;;;;;;;;;5.25;4.00;;;;;20.50;40.52;99091.22;5041268;28;45295;-70
2022/02/14 02:21:22;;;;;;;;;4.00;4.00;;;;;20.51;40.67;99080.53;5024735;28;47325;-70
2022/02/14 02:23:47;;;;;;;;;6.00;5.00;;;;;20.51;40.60;99108.84;5041502;28;45720;-70
2022/02/14 02:26:12;;;;;;;;;4.00;4.00;;;;;20.49;40.66;99102.75;5039895;28;55517;-70
2022/02/14 02:28:38;;;;;;;;;5.00;4.00;;;;;20.49;40.59;99077.09;5024542;28;48350;-70
2022/02/14 02:31:03;;;;;;;;;8.75;4.25;;;;;20.51;40.88;99074.38;5024271;28;47703;-70
2022/02/14 02:33:30;;;;;;;;;4.00;2.75;;;;;20.51;40.73;99090.28;5040918;28;56175;-70
2022/02/14 02:35:56;;;;;;;;;3.50;3.25;;;;;20.52;40.79;99081.41;5041331;28;45517;-70
2022/02/14 02:38:23;;;;;;;;;4.00;3.50;;;;;20.52;40.61;99092.84;5054545;28;45520;-70
2022/02/14 02:40:48;;;;;;;;;5.00;4.25;;;;;20.51;40.65;99087.66;5089861;27;45300;-70
2022/02/14 02:43:15;;;;;;;;;6.75;3.00;;;;;20.49;40.82;99079.75;5041317;28;45303;-70
2022/02/14 02:45:40;;;;;;;;;3.75;3.50;;;;;20.48;40.84;99078.03;5024593;28;45464;-70
2022/02/14 02:48:06;;;;;;;;;5.00;4.00;;;;;20.45;40.99;99070.28;5040501;28;64847;-70
2022/02/14 02:50:31;;;;;;;;;4.75;4.25;;;;;20.43;40.75;99079.25;5023498;28;64367;-70
2022/02/14 02:52:57;;;;;;;;;4.00;4.00;;;;;20.39;41.12;99070.59;5057881;28;49949;-70
2022/02/14 02:55:22;;;;;;;;;4.50;4.00;;;;;20.39;41.31;99078.53;5040680;28;52590;-70
2022/02/14 02:57:47;;;;;;;;;4.75;4.75;;;;;20.38;40.91;99092.75;5024485;28;45550;-70
2022/02/14 03:00:14;;;;;;;;;6.25;5.50;;;;;20.36;41.05;99086.69;5040796;28;45407;-70
2022/02/14 03:02:39;;;;;;;;;3.25;3.25;;;;;20.35;41.27;99070.88;5024597;28;45434;-70
2022/02/14 03:05:05;;;;;;;;;4.00;4.00;;;;;20.35;41.36;99084.13;5041342;28;45401;-70
2022/02/14 03:07:30;;;;;;;;;5.00;4.00;;;;;20.33;41.75;99074.47;5057888;28;45654;-70
2022/02/14 03:09:56;;;;;;;;;5.25;4.75;;;;;20.32;41.61;99078.03;5040215;28;59362;-70
2022/02/14 03:12:21;;;;;;;;;3.25;3.25;;;;;20.31;41.76;99060.44;5040965;28;45306;-70
2022/02/14 03:14:47;;;;;;;;;6.00;4.25;;;;;20.32;41.71;99056.84;5057119;28;50247;-70
2022/02/14 03:17:12;;;;;;;;;4.75;2.75;;;;;20.31;41.67;99068.38;5040465;28;55788;-70
2022/02/14 03:19:38;;;;;;;;;4.00;4.00;;;;;20.29;41.60;99072.94;5040719;28;45238;-70
2022/02/14 03:22:03;;;;;;;;;6.75;5.00;;;;;20.28;41.98;99083.63;5040866;28;45228;-70
2022/02/14 03:24:30;;;;;;;;;5.75;4.50;;;;;20.26;42.09;99088.16;5040692;28;45316;-70
2022/02/14 03:26:55;;;;;;;;;3.75;3.75;;;;;20.26;42.16;99072.25;5040864;28;45418;-71
2022/02/14 03:29:20;;;;;;;;;4.00;4.00;;;;;20.25;42.37;99097.91;5040146;28;59733;-70
2022/02/14 03:31:46;;;;;;;;;5.00;4.00;;;;;20.27;42.44;99095.16;5023587;28;52087;-70
2022/02/14 03:34:12;;;;;;;;;4.00;3.00;;;;;20.28;42.37;99094.22;5057407;28;45315;-70
2022/02/14 03:36:38;;;;;;;;;5.00;5.00;;;;;20.25;42.07;99103.19;5037310;28;45458;-70
2022/02/14 03:39:04;;;;;;;;;4.50;3.00;;;;;20.25;42.72;99112.94;5058533;28;47925;-70
2022/02/14 03:41:29;;;;;;;;;3.75;3.25;;;;;20.24;42.48;99105.91;5068625;28;45361;-71
2022/02/14 03:43:55;;;;;;;;;5.25;4.00;;;;;20.23;42.70;99099.75;5043824;28;47000;-71
2022/02/14 03:46:20;;;;;;;;;8.00;4.75;;;;;20.24;42.85;99108.56;5027150;28;45748;-71
2022/02/14 03:48:45;;;;;;;;;5.50;3.00;;;;;20.25;42.47;99124.41;5043273;28;52803;-71
2022/02/14 03:51:11;;;;;;;;;5.00;2.50;;;;;20.24;42.83;99132.41;5043567;28;50285;-71
2022/02/14 03:53:36;;;;;;;;;4.75;4.00;;;;;20.25;42.72;99121.75;5043794;28;45319;-71
2022/02/14 03:56:04;;;;;;;;;5.00;4.00;;;;;20.26;43.03;99120.81;5026931;28;45556;-71
2022/02/14 03:58:30;;;;;;;;;4.50;2.50;;;;;20.27;42.88;99133.09;5044005;28;46147;-71
2022/02/14 04:00:55;;;;;;;;;2.25;2.25;;;;;20.26;43.04;99141.16;5043667;28;45320;-71
2022/02/14 04:03:20;;;;;;;;;4.50;3.25;;;;;20.28;42.81;99182.50;5060257;28;47517;-70
2022/02/14 04:05:46;;;;;;;;;2.00;2.00;;;;;20.29;42.55;99196.59;5043813;28;45348;-71
2022/02/14 04:08:11;;;;;;;;;1.50;1.50;;;;;20.28;42.43;99201.03;5043337;28;47118;-71
2022/02/14 04:10:37;;;;;;;;;4.00;3.00;;;;;20.29;42.19;99213.34;5043522;28;45263;-71
2022/02/14 04:13:02;;;;;;;;;2.25;2.25;;;;;20.30;42.72;99207.09;5043776;28;45561;-71
2022/02/14 04:15:28;;;;;;;;;2.00;2.00;;;;;20.29;42.36;99213.34;5043230;28;45636;-71
2022/02/14 04:17:53;;;;;;;;;3.50;2.00;;;;;20.31;42.42;99214.09;5043218;28;49381;-71
2022/02/14 04:20:18;;;;;;;;;3.00;3.00;;;;;20.32;42.50;99212.31;5043510;28;45326;-71
2022/02/14 04:22:44;;;;;;;;;1.00;1.00;;;;;20.35;42.02;99224.56;5043509;28;45557;-71
2022/02/14 04:25:11;;;;;;;;;3.00;3.00;;;;;20.34;42.33;99210.47;5060287;28;45421;-71
2022/02/14 04:27:36;;;;;;;;;1.50;1.00;;;;;20.36;41.77;99223.63;5043427;28;47980;-71
2022/02/14 04:30:02;;;;;;;;;3.50;3.25;;;;;20.35;42.39;99229.84;5025975;28;64130;-71
2022/02/14 04:32:28;;;;;;;;;3.75;2.00;;;;;20.36;42.30;99231.56;5043262;28;45356;-71
2022/02/14 04:34:53;;;;;;;;;2.00;2.00;;;;;20.37;42.20;99234.13;5042929;28;45342;-70
2022/02/14 04:37:18;;;;;;;;;2.25;2.00;;;;;20.37;42.21;99249.16;5060922;28;46323;-70
2022/02/14 04:39:44;;;;;;;;;2.00;2.00;;;;;20.36;42.21;99252.75;5042208;28;64224;-70
2022/02/14 04:42:10;;;;;;;;;2.25;2.00;;;;;20.36;41.71;99252.75;5060441;28;60349;-70
2022/02/14 04:44:35;;;;;;;;;2.00;1.75;;;;;20.37;42.03;99252.66;5042958;28;45255;-70
2022/02/14 04:47:00;;;;;;;;;1.50;1.00;;;;;20.38;41.56;99258.81;5059049;28;61995;-70
2022/02/14 04:49:26;;;;;;;;;1.75;1.75;;;;;20.39;41.97;99255.22;5042100;28;45428;-70
2022/02/14 04:51:51;;;;;;;;;3.25;3.00;;;;;20.40;41.52;99265.75;5026357;28;45412;-70
2022/02/14 04:54:17;;;;;;;;;1.75;1.00;;;;;20.41;42.21;99277.19;5025900;28;53401;-70
2022/02/14 04:56:42;;;;;;;;;1.00;1.00;;;;;20.42;41.84;99273.63;5059118;28;55164;-70
2022/02/14 04:59:09;;;;;;;;;2.00;2.00;;;;;20.41;41.74;99285.16;5059433;28;51873;-70
2022/02/14 05:01:34;;;;;;;;;2.25;2.25;;;;;20.42;41.77;99284.25;5059339;28;45585;-70
2022/02/14 05:03:59;;;;;;;;;3.75;2.25;;;;;20.41;41.53;99298.41;5060973;28;45346;-70
2022/02/14 05:06:25;;;;;;;;;2.00;2.00;;;;;20.41;41.41;99299.25;5058817;28;57187;-70
2022/02/14 05:08:50;;;;;;;;;2.00;2.00;;;;;20.42;41.66;99308.09;5042714;28;45674;-70
2022/02/14 05:11:16;;;;;;;;;3.50;2.00;;;;;20.43;41.78;99312.44;5060140;28;54753;-70
2022/02/14 05:13:41;;;;;;;;;1.00;1.00;;;;;20.46;41.71;99314.94;5059613;28;45572;-70
2022/02/14 05:16:10;;;;;;;;;2.25;2.25;;;;;20.47;41.82;99324.59;5058897;28;45604;-70
2022/02/14 05:18:36;;;;;;;;;1.50;1.50;;;;;20.48;41.62;99326.31;5059208;28;45514;-70
2022/02/14 05:21:01;;;;;;;;;0.75;0.75;;;;;20.47;41.66;99329.91;5076123;28;45228;-70
2022/02/14 05:23:26;;;;;;;;;1.00;1.00;;;;;20.45;41.73;99324.69;5026047;28;45535;-70
2022/02/14 05:25:52;;;;;;;;;1.00;1.00;;;;;20.44;41.27;99338.88;5042205;28;47047;-70
2022/02/14 05:28:17;;;;;;;;;0.00;0.00;;;;;20.43;41.39;99342.47;5042588;28;45286;-70
2022/02/14 05:30:43;;;;;;;;;1.00;1.00;;;;;20.43;41.58;99354.84;5041647;28;54914;-70
2022/02/14 05:33:08;;;;;;;;;1.50;0.75;;;;;20.43;41.95;99354.84;5058834;28;53188;-70
2022/02/14 05:35:33;;;;;;;;;2.25;2.00;;;;;20.39;41.38;99343.53;5041743;28;46957;-70
2022/02/14 05:37:59;;;;;;;;;1.00;1.00;;;;;20.40;41.77;99353.19;5055173;28;55409;-70
2022/02/14 05:40:25;;;;;;;;;2.00;2.00;;;;;20.40;41.79;99363.78;5070835;28;45282;-70
2022/02/14 05:42:50;;;;;;;;;1.00;1.00;;;;;20.40;41.85;99362.94;5025698;28;45817;-70
2022/02/14 05:45:16;;;;;;;;;1.75;1.75;;;;;20.40;41.43;99365.59;5059858;28;45493;-70
2022/02/14 05:47:41;;;;;;;;;1.50;1.50;;;;;20.38;41.60;99363.03;5025313;28;45459;-70
2022/02/14 05:50:07;;;;;;;;;2.00;2.00;;;;;20.40;41.83;99374.41;5042029;28;45672;-70
2022/02/14 05:52:33;;;;;;;;;2.00;1.00;;;;;20.40;41.79;99376.19;5042531;28;45753;-71
2022/02/14 05:54:58;;;;;;;;;1.75;1.75;;;;;20.42;42.42;99375.19;5058632;28;45396;-69
2022/02/14 05:57:24;;;;;;;;;1.25;1.25;;;;;20.50;43.01;99372.13;5042167;28;45236;-69
2022/02/14 05:59:49;;;;;;;;;1.50;1.50;;;;;20.57;43.45;99378.84;5026202;28;47804;-70
2022/02/14 06:02:14;;;;;;;;;1.00;1.00;;;;;20.63;43.78;99386.47;5058445;28;64997;-73
2022/02/14 06:04:40;;;;;;;;;2.00;2.00;;;;;20.74;44.46;99389.38;5042048;28;47341;-72
2022/02/14 06:07:08;;;;;;;;;4.00;2.75;;;;;20.87;43.97;99386.94;5061434;28;45347;-76
2022/02/14 06:09:34;;;;;;;;;2.50;2.50;;;;;21.01;44.20;99383.50;5058933;28;45363;-74
2022/02/14 06:11:59;;;;;;;;;2.25;2.25;;;;;21.23;43.89;99394.66;5041927;28;45355;-75
2022/02/14 06:14:27;;;;;;;;;3.00;3.00;;;;;21.41;43.99;99404.25;5059497;28;45328;-76
2022/02/14 06:16:52;;;;;;;;;3.75;2.50;;;;;21.55;43.79;99414.13;5058853;28;45471;-76
2022/02/14 06:19:18;;;;;;;;;4.25;3.00;;;;;21.66;43.81;99418.81;5058504;28;45373;-76
2022/02/14 06:21:43;;;;;;;;;2.75;2.25;;;;;21.74;43.56;99427.19;5058563;28;45243;-77
2022/02/14 06:24:08;;;;;;;;;3.50;2.25;;;;;21.85;43.53;99435.38;5058363;28;46025;-72
2022/02/14 06:26:34;;;;;;;;;1.00;1.00;;;;;21.91;43.27;99442.16;5041226;28;47161;-75
2022/02/14 06:29:00;;;;;;;;;3.00;3.00;;;;;21.95;43.30;99448.97;5058230;28;45479;-75
2022/02/14 06:31:26;;;;;;;;;4.00;3.00;;;;;21.92;43.22;99452.69;5059355;28;45338;-75
2022/02/14 06:33:52;;;;;;;;;1.50;1.50;;;;;21.95;43.06;99459.59;5059316;28;45238;-75
2022/02/14 06:36:18;;;;;;;;;1.00;1.00;;;;;21.93;43.38;99459.69;5059557;28;45527;-75
2022/02/14 06:38:43;;;;;;;;;3.25;3.25;;;;;21.94;43.27;99468.53;5059325;28;45476;-74
2022/02/14 06:41:09;;;;;;;;;5.75;3.25;;;;;21.94;43.40;99473.84;5058057;28;45601;-77
2022/02/14 06:43:34;;;;;;;;;2.00;1.50;;;;;21.94;43.82;99472.03;5040888;28;47342;-75
2022/02/14 06:46:00;;;;;;;;;2.75;2.25;;;;;21.95;44.31;99468.44;5041144;28;47120;-74
2022/02/14 06:48:25;;;;;;;;;1.75;1.75;;;;;21.93;44.54;99475.63;5057965;28;45776;-77
2022/02/14 06:50:51;;;;;;;;;3.00;2.00;;;;;21.95;44.50;99473.75;5024468;28;45478;-75
2022/02/14 06:53:16;;;;;;;;;6.75;3.00;;;;;21.98;44.89;99475.38;5057649;28;46387;-75
2022/02/14 06:55:41;;;;;;;;;4.25;2.75;;;;;21.99;45.63;99485.91;5058997;28;52150;-74
2022/02/14 06:58:07;;;;;;;;;5.25;3.75;;;;;22.02;45.90;99485.72;5040585;28;50299;-73
2022/02/14 07:00:32;;;;;;;;;4.00;2.75;;;;;22.05;46.06;99494.47;5057617;28;45557;-74
2022/02/14 07:02:58;;;;;;;;;3.50;2.75;;;;;22.07;45.99;99497.91;5057625;28;45950;-75
2022/02/14 07:05:25;;;;;;;;;3.25;2.25;;;;;22.06;45.57;99493.50;5057905;28;45336;-76
2022/02/14 07:07:50;;;;;;;;;3.00;2.00;;;;;22.08;45.38;99510.28;5059132;28;45284;-76
2022/02/14 07:10:16;;;;;;;;;2.25;2.25;;;;;22.08;45.51;99508.47;5057895;28;45251;-76
2022/02/14 07:12:44;;;;;;;;;5.75;3.25;;;;;22.05;45.29;99515.72;5059561;28;45693;-76
2022/02/14 07:15:11;;;;;;;;;3.00;2.50;;;;;22.02;44.71;99512.31;5061740;28;45476;-77
2022/02/14 07:17:36;;;;;;;;;4.75;2.75;;;;;22.06;44.56;99528.06;5061155;28;45399;-75
2022/02/14 07:20:02;;;;;;;;;2.25;2.25;;;;;22.03;44.67;99518.47;5044556;28;45313;-75
2022/02/14 07:22:27;;;;;;;;;4.00;2.75;;;;;22.03;44.64;99523.78;5061127;28;47966;-75
2022/02/14 07:24:53;;;;;;;;;4.00;2.25;;;;;22.02;44.46;99528.25;5062611;28;45415;-75
2022/02/14 07:27:18;;;;;;;;;5.00;3.00;;;;;22.02;44.96;99535.38;5044513;28;45327;-75
2022/02/14 07:29:44;;;;;;;;;4.50;2.00;;;;;22.00;44.38;99539.91;5061863;28;55647;-75
2022/02/14 07:32:09;;;;;;;;;3.00;3.00;;;;;22.01;44.63;99547.78;5044059;28;46596;-74
2022/02/14 07:34:34;;;;;;;;;5.25;4.00;;;;;22.01;44.16;99545.13;5061833;28;56052;-77
2022/02/14 07:37:02;;;;;;;;;5.25;3.25;;;;;22.01;44.18;99557.56;5060417;28;55221;-77
2022/02/14 07:39:31;;;;;;;;;2.00;2.00;;;;;22.01;43.94;99558.41;5062137;28;45358;-76
2022/02/14 07:41:57;;;;;;;;;5.75;3.00;;;;;21.99;43.46;99554.16;5060451;28;46089;-80
2022/02/14 07:44:23;;;;;;;;;2.50;2.00;;;;;21.97;43.45;99562.19;5027129;28;45398;-75
2022/02/14 07:46:51;;;;;;;;;1.75;1.75;;;;;21.93;42.81;99559.78;5062077;28;45227;-75
2022/02/14 07:49:20;;;;;;;;;1.00;1.00;;;;;21.90;42.21;99559.97;5027668;28;45478;-75
2022/02/14 07:51:45;;;;;;;;;3.75;2.75;;;;;21.88;41.75;99562.69;5044025;28;47149;-76
2022/02/14 07:54:10;;;;;;;;;2.75;1.75;;;;;21.85;41.56;99568.19;5044320;28;45425;-82
2022/02/14 07:56:36;;;;;;;;;1.00;1.00;;;;;21.84;41.48;99571.78;5043132;28;45395;-75
2022/02/14 07:59:05;;;;;;;;;1.50;1.00;;;;;21.82;41.36;99575.47;5034100;28;45347;-82
2022/02/14 08:01:36;;;;;;;;;1.75;1.00;;;;;21.83;40.92;99578.06;5074764;28;46725;-81
2022/02/14 08:04:10;;;;;;;;;2.00;2.00;;;;;21.76;41.13;99578.47;5058168;28;45548;-77
2022/02/14 08:06:37;;;;;;;;;3.00;1.50;;;;;21.78;40.51;99585.41;5061400;28;45401;-80
2022/02/14 08:09:03;;;;;;;;;1.75;1.75;;;;;21.73;39.66;99583.03;5054645;28;45351;-81
2022/02/14 08:11:30;;;;;;;;;2.00;2.00;;;;;21.74;39.92;99589.19;5051439;28;45475;-81
2022/02/14 08:13:55;;;;;;;;;1.50;1.00;;;;;21.71;39.50;99590.19;5039760;28;46458;-79
2022/02/14 08:16:24;;;;;;;;;2.75;1.75;;;;;21.69;39.41;99591.22;5057322;28;45505;-77
2022/02/14 08:18:52;;;;;;;;;1.75;0.50;;;;;21.64;39.51;99590.63;5059936;28;45497;-80
2022/02/14 08:21:21;;;;;;;;;2.00;1.75;;;;;21.65;38.99;99608.28;5059972;28;46148;-75
2022/02/14 08:23:47;;;;;;;;;1.25;0.00;;;;;21.63;38.67;99613.69;5042362;28;45729;-79
2022/02/14 08:26:12;;;;;;;;;1.00;1.00;;;;;21.62;38.97;99611.06;5060367;28;46402;-79
2022/02/14 08:28:41;;;;;;;;;1.00;1.00;;;;;21.59;38.44;99617.44;5060123;28;45294;-78
2022/02/14 08:31:06;;;;;;;;;3.25;1.25;;;;;21.61;38.43;99617.34;5059463;28;48056;-80
2022/02/14 08:36:43;;;;;;;;;2.00;1.00;;;;;21.56;38.61;99617.59;5046045;28;45728;-76
2022/02/14 08:39:08;;;;;;;;;2.50;2.00;;;;;21.57;38.49;99621.97;5043992;28;45467;-76
2022/02/14 08:41:37;;;;;;;;;2.00;1.50;;;;;21.58;38.14;99630.78;5060630;28;45331;-77
2022/02/14 08:44:05;;;;;;;;;2.50;2.00;;;;;21.57;37.99;99626.41;5061059;28;45406;-75
2022/02/14 08:46:31;;;;;;;;;1.50;1.00;;;;;21.53;37.76;99617.75;5042509;28;45216;-75
2022/02/14 08:48:56;;;;;;;;;3.50;1.00;;;;;21.53;38.02;99617.75;5059200;28;45281;-76
2022/02/14 08:51:22;;;;;;;;;1.00;1.00;;;;;21.57;37.82;99621.09;5060931;28;45894;-76
2022/02/14 08:53:48;;;;;;;;;2.25;1.00;;;;;21.57;37.49;99621.97;5059420;28;45334;-76
2022/02/14 08:56:14;;;;;;;;;1.25;0.50;;;;;21.58;37.68;99620.16;5058643;28;45413;-76
2022/02/14 08:58:42;;;;;;;;;3.00;2.00;;;;;21.59;37.53;99620.06;5024063;28;45459;-78
2022/02/14 09:01:08;;;;;;;;;1.50;1.00;;;;;21.61;37.46;99622.66;5041504;28;45450;-76
2022/02/14 09:03:34;;;;;;;;;3.25;2.25;;;;;21.64;37.65;99622.50;5059075;28;45391;-76
2022/02/14 09:05:59;;;;;;;;;2.00;0.00;;;;;21.67;37.59;99624.97;5059376;28;45548;-77
2022/02/14 09:08:28;;;;;;;;;1.00;1.00;;;;;21.67;37.70;99627.63;5060220;28;45225;-80
2022/02/14 09:10:55;;;;;;;;;1.50;1.00;;;;;21.70;37.88;99633.63;5058885;28;45474;-75
2022/02/14 09:13:21;;;;;;;;;5.00;2.00;;;;;21.72;37.81;99620.28;5058911;28;45362;-75
2022/02/14 09:15:56;;;;;;;;;4.00;1.75;;;;;21.69;37.92;99617.78;5042337;28;45386;-75
2022/02/14 09:18:21;;;;;;;;;1.00;1.00;;;;;21.72;37.78;99622.94;5058593;28;45529;-74
2022/02/14 09:20:47;;;;;;;;;1.25;1.25;;;;;21.73;37.90;99611.38;5057879;28;45919;-76
2022/02/14 09:23:15;;;;;;;;;3.00;1.00;;;;;21.75;37.18;99628.06;5036618;28;45535;-73
2022/02/14 09:25:41;;;;;;;;;2.00;1.00;;;;;21.70;37.23;99623.00;5038814;28;45428;-79
2022/02/14 09:28:06;;;;;;;;;1.50;1.00;;;;;21.64;37.08;99628.66;5025746;28;45629;-75
2022/02/14 09:30:32;;;;;;;;;1.25;1.25;;;;;21.61;36.54;99625.31;5058269;28;45540;-75
2022/02/14 09:32:58;;;;;;;;;1.50;1.00;;;;;21.56;36.76;99632.69;5058989;28;45398;-76
2022/02/14 09:35:26;;;;;;;;;2.00;0.75;;;;;21.52;36.64;99637.28;5058245;28;45316;-76
2022/02/14 09:37:59;;;;;;;;;2.25;1.50;;;;;21.45;36.05;99630.56;5060346;28;45290;-78
2022/02/14 09:40:25;;;;;;;;;2.00;2.00;;;;;21.44;36.51;99636.81;5058051;28;46945;-76
2022/02/14 09:42:54;;;;;;;;;1.25;1.00;;;;;21.40;36.06;99628.19;5060190;28;45354;-78
2022/02/14 09:45:22;;;;;;;;;2.00;2.00;;;;;21.38;36.30;99637.16;5041870;28;45186;-77
2022/02/14 09:47:52;;;;;;;;;2.25;2.00;;;;;21.36;35.97;99633.72;5060105;28;45220;-76
2022/02/14 09:50:18;;;;;;;;;1.75;0.75;;;;;21.31;36.25;99644.59;5041811;28;46472;-75
2022/02/14 09:52:43;;;;;;;;;3.75;2.00;;;;;21.34;36.12;99648.88;5040088;28;53707;-75
2022/02/14 09:55:09;;;;;;;;;1.00;1.00;;;;;21.33;36.60;99658.63;5058272;28;46413;-75
2022/02/14 09:57:34;;;;;;;;;2.25;2.25;;;;;21.36;36.48;99665.56;5059703;28;45853;-78
2022/02/14 10:00:00;;;;;;;;;3.00;1.75;;;;;21.34;36.75;99663.00;5041036;28;45367;-77
2022/02/14 10:02:26;;;;;;;;;1.00;1.00;;;;;21.38;36.33;99667.22;5058848;28;45320;-73
2022/02/14 10:05:08;;;;;;;;;1.75;1.75;;;;;21.47;36.90;99676.50;5025624;28;45470;-75
2022/02/14 10:07:50;;;;;;;;;2.00;0.25;;;;;21.50;37.03;99670.16;5058470;28;45275;-73
2022/02/14 10:10:20;;;;;;;;;1.00;1.00;;;;;21.50;36.76;99672.81;5059142;28;45480;-74
2022/02/14 10:12:47;;;;;;;;;2.00;2.00;;;;;21.53;37.19;99677.94;5059624;28;45281;-74
2022/02/14 10:15:13;;;;;;;;;0.00;0.00;;;;;21.53;37.17;99673.50;5057155;28;45267;-74
2022/02/14 10:17:44;;;;;;;;;4.25;2.00;;;;;21.52;37.08;99677.09;5059197;28;45481;-73
2022/02/14 10:20:10;;;;;;;;;1.00;1.00;;;;;21.54;37.48;99679.66;5041686;28;48170;-73
2022/02/14 10:22:58;;;;;;;;;3.00;1.50;;;;;21.54;37.39;99684.97;5041088;28;45260;-73
2022/02/14 10:25:28;;;;;;;;;1.50;1.00;;;;;21.54;37.61;99679.66;5059426;28;45387;-74
2022/02/14 10:27:53;;;;;;;;;2.00;2.00;;;;;21.54;37.68;99677.00;5051159;28;45303;-74
2022/02/14 10:30:19;;;;;;;;;0.75;0.75;;;;;21.53;37.70;99692.09;5057162;28;46303;-73
2022/02/14 10:32:53;;;;;;;;;1.25;1.00;;;;;21.54;37.84;99693.78;5057231;28;53164;-74
2022/02/14 10:35:19;;;;;;;;;1.00;1.00;;;;;21.54;37.92;99693.78;5057679;28;45468;-74
2022/02/14 10:37:45;;;;;;;;;2.00;2.00;;;;;21.54;38.01;99695.59;5057961;28;45319;-73
2022/02/14 10:40:35;;;;;;;;;2.00;1.00;;;;;21.59;37.87;99701.53;5059089;28;45346;-74
2022/02/14 10:43:01;;;;;;;;;1.00;1.00;;;;;21.59;38.52;99691.78;5057904;28;45477;-74
2022/02/14 10:45:26;;;;;;;;;1.50;1.00;;;;;21.65;38.20;99698.56;5057214;28;45378;-74
2022/02/14 10:47:52;;;;;;;;;1.25;0.75;;;;;21.67;37.80;99686.06;5059057;28;55618;-73
2022/02/14 10:50:23;;;;;;;;;2.25;1.00;;;;;21.68;38.26;99698.38;5060033;28;45559;-74
2022/02/14 10:52:56;;;;;;;;;3.25;2.00;;;;;21.70;38.24;99694.72;5062205;28;45405;-74
2022/02/14 10:55:26;;;;;;;;;1.00;1.00;;;;;21.74;38.37;99703.38;5044433;28;45194;-74
2022/02/14 10:57:52;;;;;;;;;2.50;2.00;;;;;21.77;38.07;99697.03;5062763;28;45330;-75
2022/02/14 11:00:19;;;;;;;;;1.00;1.00;;;;;21.80;38.38;99694.22;5060967;28;46296;-75
2022/02/14 11:02:47;;;;;;;;;2.50;2.50;;;;;21.73;37.93;99681.28;5044397;28;46105;-75
2022/02/14 11:05:13;;;;;;;;;4.75;2.50;;;;;21.78;38.42;99694.28;5061342;28;45234;-74
2022/02/14 11:07:39;;;;;;;;;1.00;1.00;;;;;21.77;38.26;99684.63;5061373;28;45406;-74
2022/02/14 11:10:09;;;;;;;;;2.00;2.00;;;;;21.78;38.07;99675.72;5060767;28;48282;-74
2022/02/14 11:12:34;;;;;;;;;1.25;0.00;;;;;21.80;38.27;99686.25;5061051;28;45569;-74
2022/02/14 11:15:01;;;;;;;;;2.75;1.75;;;;;21.80;38.28;99691.56;5044253;28;45335;-74
2022/02/14 11:17:31;;;;;;;;;1.00;1.00;;;;;21.79;38.57;99685.38;5062353;28;45227;-74
2022/02/14 11:19:58;;;;;;;;;3.25;1.00;;;;;21.78;38.44;99677.50;5062113;28;45570;-75
2022/02/14 11:22:44;;;;;;;;;2.00;2.00;;;;;21.84;38.13;99679.84;5062305;28;45393;-75
2022/02/14 11:25:32;;;;;;;;;2.00;2.00;;;;;21.84;38.06;99677.19;5040721;28;45210;-75
2022/02/14 11:28:06;;;;;;;;;2.00;2.00;;;;;21.81;38.49;99678.22;5093210;27;45560;-74
2022/02/14 11:30:32;;;;;;;;;1.50;1.00;;;;;21.77;38.37;99667.81;5062139;28;45216;-74
2022/02/14 11:33:13;;;;;;;;;2.50;2.50;;;;;21.80;38.06;99673.81;5060595;28;45438;-74
2022/02/14 11:35:42;;;;;;;;;1.25;1.25;;;;;21.78;38.45;99672.19;5060956;28;45413;-75
2022/02/14 11:38:08;;;;;;;;;1.75;1.75;;;;;21.78;38.19;99665.09;5077055;28;45516;-74